Boston, Massachusetts
Current Conditions -  °F | °C
As of 5:40 AM on Friday 24 Oct 2014 (Local Time) from KBOS Reporting Station
Overcast Overcast  
Wind Chill: 43°   Ceiling: 1500
Heat Index: 48°   Visibility: 9mi
Dew Point: 48°   Wind: 13mph
Humidity: 100%   Direction: 330°NNW
Pressure: 29.67"   Gusts: NA
Location:  42.36°N, 71.06°W
Report Text: KBOS 240940Z 33011KT 9SM SCT010 BKN015 OVC030 09/09 A2967 RMK AO2
Loading
Personal Weather Stations






























Interactive Weather Map
Tropical Storm Tracking
New forecast layout! Learn more

10-Day Weather Forecast

Advertisements
Track Severe Weather on mobile